Time;durP1;ratioP1;P1;durP2;ratioP2;P2;SDS_P1;SDS_P2;PMS_P1;PMS_P2;Temp;Humidity;BMP_temperature;BMP_pressure;BME280_temperature;BME280_humidity;BME280_pressure;Samples;Min_cycle;Max_cycle;Signal;HPM_P1;HPM_P2
2023/04/25 00:00:20;;;;;;;16.53;14.73;;;;;;;15.10;100.00;100581.66;2079990;28;20168;-67
2023/04/25 00:01:21;;;;;;;18.00;14.17;;;;;;;15.06;100.00;100575.47;2079896;28;20415;-66
2023/04/25 00:02:22;;;;;;;15.77;14.17;;;;;;;15.12;100.00;100578.41;2080652;28;20574;-66
2023/04/25 00:03:24;;;;;;;16.30;13.33;;;;;;;15.16;100.00;100573.47;2079709;28;20212;-67
2023/04/25 00:04:27;;;;;;;19.83;14.67;;;;;;;15.15;100.00;100572.69;2080118;28;20189;-67
2023/04/25 00:05:29;;;;;;;17.37;14.00;;;;;;;15.10;100.00;100575.31;2079842;28;20478;-67
2023/04/25 00:06:31;;;;;;;19.23;13.90;;;;;;;15.08;100.00;100570.22;2073001;28;20973;-66
2023/04/25 00:07:33;;;;;;;15.23;13.73;;;;;;;14.72;100.00;100510.78;2075199;28;20446;-66
2023/04/25 00:08:34;;;;;;;16.07;14.33;;;;;;;15.17;100.00;100575.00;2078832;28;20435;-67
2023/04/25 00:09:34;;;;;;;17.63;14.07;;;;;;;15.13;100.00;100577.19;2079743;28;20484;-67
2023/04/25 00:10:34;;;;;;;15.77;14.27;;;;;;;15.21;100.00;100579.19;2079758;28;20605;-66
2023/04/25 00:11:35;;;;;;;16.67;14.00;;;;;;;15.02;100.00;100552.50;2080493;28;20203;-66
2023/04/25 00:12:35;;;;;;;21.30;14.73;;;;;;;15.21;100.00;100573.59;2079827;28;20193;-66
2023/04/25 00:13:36;;;;;;;17.90;14.43;;;;;;;15.18;100.00;100571.75;2075665;28;20186;-67
2023/04/25 00:14:36;;;;;;;15.83;14.27;;;;;;;15.18;100.00;100570.97;2077259;28;20193;-66
2023/04/25 00:15:37;;;;;;;16.70;15.00;;;;;;;15.11;100.00;100568.50;2078671;28;20219;-66
2023/04/25 00:16:38;;;;;;;16.87;14.47;;;;;;;15.10;100.00;100566.94;2078551;28;20605;-66
2023/04/25 00:17:39;;;;;;;16.30;14.60;;;;;;;15.06;100.00;100569.13;2078745;28;20419;-66
2023/04/25 00:18:40;;;;;;;17.13;14.63;;;;;;;14.88;100.00;100543.97;2078051;28;20193;-66
2023/04/25 00:19:41;;;;;;;18.20;15.20;;;;;;;15.00;100.00;100568.94;2071840;28;20270;-66
2023/04/25 00:20:46;;;;;;;16.20;13.90;;;;;;;14.96;100.00;100562.72;2080514;28;20975;-67
2023/04/25 00:21:46;;;;;;;15.90;14.30;;;;;;;14.89;100.00;100563.03;2079826;28;20546;-66
2023/04/25 00:22:47;;;;;;;16.90;14.27;;;;;;;14.90;100.00;100556.22;2079685;28;20532;-67
2023/04/25 00:23:48;;;;;;;15.80;14.13;;;;;;;14.89;100.00;100563.03;2074539;28;20599;-66
2023/04/25 00:24:48;;;;;;;16.07;14.53;;;;;;;14.87;100.00;100559.97;2075972;28;20454;-66
2023/04/25 00:25:49;;;;;;;15.83;14.13;;;;;;;14.80;100.00;100565.06;2078761;28;20189;-66
2023/04/25 00:26:50;;;;;;;16.63;14.87;;;;;;;14.83;100.00;100562.13;2079335;28;20268;-66
2023/04/25 00:27:50;;;;;;;16.73;15.17;;;;;;;14.80;100.00;100560.22;2078564;28;20420;-66
2023/04/25 00:28:51;;;;;;;17.00;15.30;;;;;;;14.78;100.00;100561.94;2074696;28;20276;-67
2023/04/25 00:29:51;;;;;;;16.43;14.93;;;;;;;14.82;100.00;100560.56;2079853;28;20203;-66
2023/04/25 00:30:51;;;;;;;16.40;14.80;;;;;;;14.83;100.00;100564.13;2079873;28;20264;-66
2023/04/25 00:31:52;;;;;;;16.97;15.13;;;;;;;14.86;100.00;100569.53;2079922;28;20595;-67
2023/04/25 00:32:53;;;;;;;15.67;14.20;;;;;;;14.83;100.00;100564.91;2079583;28;20606;-67
2023/04/25 00:33:53;;;;;;;16.60;14.90;;;;;;;14.80;100.00;100565.81;2077883;28;20202;-67
2023/04/25 00:34:55;;;;;;;15.93;14.53;;;;;;;14.75;100.00;100563.63;2079716;28;20174;-66
2023/04/25 00:35:56;;;;;;;15.97;14.47;;;;;;;14.72;100.00;100563.78;2078017;28;20186;-66
2023/04/25 00:36:56;;;;;;;17.50;15.70;;;;;;;14.62;100.00;100563.00;2071071;28;20505;-66
2023/04/25 00:37:57;;;;;;;16.87;15.17;;;;;;;14.71;100.00;100567.81;2079249;28;20202;-66
2023/04/25 00:38:57;;;;;;;17.37;15.57;;;;;;;14.76;100.00;100570.00;2076463;28;20194;-66
2023/04/25 00:39:58;;;;;;;17.03;15.43;;;;;;;14.29;100.00;100499.88;2079135;28;20259;-66
2023/04/25 00:40:58;;;;;;;17.10;15.47;;;;;;;14.77;100.00;100569.53;2079101;28;20177;-66
2023/04/25 00:42:00;;;;;;;16.73;15.13;;;;;;;14.75;100.00;100552.47;2079895;28;20184;-67
2023/04/25 00:43:00;;;;;;;16.80;15.20;;;;;;;14.79;100.00;100564.28;2079809;28;20221;-66
2023/04/25 00:44:03;;;;;;;16.90;14.33;;;;;;;14.80;100.00;100560.22;2072492;28;20444;-66
2023/04/25 00:45:07;;;;;;;16.30;14.77;;;;;;;14.56;100.00;100513.88;2076759;28;20200;-66
2023/04/25 00:46:07;;;;;;;16.37;14.70;;;;;;;14.81;100.00;100561.78;2079391;28;20871;-66
2023/04/25 00:47:08;;;;;;;17.00;15.30;;;;;;;14.90;100.00;100563.84;2078803;28;20447;-66
2023/04/25 00:48:09;;;;;;;15.87;14.47;;;;;;;14.85;100.00;100544.91;2079544;28;20273;-66
2023/04/25 00:49:15;;;;;;;16.70;15.03;;;;;;;14.90;100.00;100561.03;2074196;28;20668;-66
2023/04/25 00:50:15;;;;;;;16.77;14.93;;;;;;;14.90;100.00;100559.00;2079235;28;20259;-66
2023/04/25 00:51:20;;;;;;;16.80;15.20;;;;;;;14.86;100.00;100547.22;2078523;28;20417;-66
2023/04/25 00:52:20;;;;;;;16.93;15.23;;;;;;;14.81;100.00;100544.28;2079625;28;20419;-66
2023/04/25 00:53:21;;;;;;;17.07;15.30;;;;;;;14.86;100.00;100561.16;2079678;28;20539;-66
2023/04/25 00:54:22;;;;;;;17.40;15.80;;;;;;;14.01;100.00;100428.53;2079830;28;20204;-66
2023/04/25 00:55:23;;;;;;;17.10;15.50;;;;;;;14.88;100.00;100558.72;2079530;28;20954;-66
2023/04/25 00:56:23;;;;;;;16.70;15.00;;;;;;;14.03;100.00;100432.41;2078939;28;20211;-66
2023/04/25 00:57:24;;;;;;;18.07;15.40;;;;;;;14.02;100.00;100416.13;2079391;28;20354;-66
2023/04/25 00:58:25;;;;;;;16.93;15.20;;;;;;;14.92;100.00;100550.19;2080734;28;20530;-66
2023/04/25 00:59:25;;;;;;;15.77;14.30;;;;;;;14.84;100.00;100541.34;2073901;28;20182;-66
2023/04/25 01:00:26;;;;;;;16.30;14.70;;;;;;;14.95;100.00;100552.81;2081500;28;20202;-66
2023/04/25 01:01:27;;;;;;;15.93;14.37;;;;;;;14.98;100.00;100557.47;2073859;28;20180;-66
2023/04/25 01:02:28;;;;;;;15.33;13.83;;;;;;;14.97;100.00;100555.91;2080355;28;20206;-66
2023/04/25 01:03:32;;;;;;;14.87;13.37;;;;;;;15.01;100.00;100555.78;2081087;28;20474;-66
2023/04/25 01:04:33;;;;;;;16.03;14.17;;;;;;;15.00;100.00;100551.41;2081121;28;20451;-66
2023/04/25 01:05:33;;;;;;;16.53;14.67;;;;;;;14.97;100.00;100544.00;2081041;28;20511;-66
2023/04/25 01:06:34;;;;;;;16.77;15.10;;;;;;;14.94;100.00;100550.47;2081032;28;20262;-66
2023/04/25 01:07:34;;;;;;;15.67;14.07;;;;;;;14.97;100.00;100546.78;2080793;28;20177;-66
2023/04/25 01:08:37;;;;;;;15.60;14.10;;;;;;;15.03;100.00;100554.06;2081018;28;20204;-66
2023/04/25 01:09:38;;;;;;;15.50;13.80;;;;;;;15.08;100.00;100547.09;2080345;28;20266;-66
2023/04/25 01:10:39;;;;;;;15.20;13.70;;;;;;;15.11;100.00;100543.38;2081185;28;20431;-66
2023/04/25 01:11:40;;;;;;;18.13;13.20;;;;;;;15.09;100.00;100538.25;2072358;28;20197;-66
2023/04/25 01:12:40;;;;;;;16.37;13.83;;;;;;;15.10;100.00;100541.81;2080539;28;20536;-66
2023/04/25 01:13:41;;;;;;;14.77;13.47;;;;;;;15.08;100.00;100545.09;2079555;28;20569;-66
2023/04/25 01:14:41;;;;;;;15.13;13.73;;;;;;;15.07;100.00;100537.94;2076899;28;20200;-66
2023/04/25 01:15:42;;;;;;;14.30;12.87;;;;;;;14.50;100.00;100443.22;2080002;28;20182;-66
2023/04/25 01:16:42;;;;;;;15.30;13.80;;;;;;;15.01;100.00;100519.50;2080044;28;20554;-66
2023/04/25 01:17:43;;;;;;;15.80;14.30;;;;;;;15.05;100.00;100528.47;2080460;28;20179;-66
2023/04/25 01:18:45;;;;;;;15.67;14.07;;;;;;;15.03;100.00;100528.16;2081324;28;20181;-66
2023/04/25 01:19:48;;;;;;;15.53;14.13;;;;;;;14.59;100.00;100462.72;2080932;28;20439;-66
2023/04/25 01:20:51;;;;;;;15.10;13.67;;;;;;;15.09;100.00;100529.09;2080925;28;20458;-66
2023/04/25 01:21:51;;;;;;;15.13;13.73;;;;;;;15.07;100.00;100523.97;2081122;28;20778;-66
2023/04/25 01:22:52;;;;;;;16.70;14.77;;;;;;;15.09;100.00;100521.50;2081132;28;20443;-66
2023/04/25 01:23:54;;;;;;;16.13;14.37;;;;;;;15.04;100.00;100526.94;2078459;28;20263;-66
2023/04/25 01:24:54;;;;;;;16.20;14.60;;;;;;;14.98;100.00;100524.00;2075519;28;20205;-66
2023/04/25 01:25:55;;;;;;;17.73;15.93;;;;;;;15.00;100.00;100518.72;2080400;28;20430;-66
2023/04/25 01:26:56;;;;;;;18.90;15.67;;;;;;;15.03;100.00;100520.59;2080730;28;20250;-66
2023/04/25 01:27:58;;;;;;;17.13;15.47;;;;;;;14.98;100.00;100524.00;2081346;28;20562;-66
2023/04/25 01:28:59;;;;;;;16.03;14.50;;;;;;;14.83;100.00;100502.75;2078157;28;20450;-66
2023/04/25 01:30:00;;;;;;;17.27;15.47;;;;;;;14.97;100.00;100519.63;2079747;28;20455;-66
2023/04/25 01:31:01;;;;;;;17.07;15.33;;;;;;;14.93;100.00;100523.81;2080103;28;20455;-66
2023/04/25 01:32:02;;;;;;;19.37;15.90;;;;;;;14.95;100.00;100524.91;2080898;28;20189;-66
2023/04/25 01:33:05;;;;;;;15.73;14.33;;;;;;;14.88;100.00;100511.28;2080757;28;20455;-66
2023/04/25 01:34:05;;;;;;;16.33;13.53;;;;;;;14.98;100.00;100526.78;2080012;28;20430;-66
2023/04/25 01:35:09;;;;;;;14.93;12.53;;;;;;;15.00;100.00;100524.31;2080839;28;20467;-66
2023/04/25 01:36:09;;;;;;;15.77;14.37;;;;;;;14.99;100.00;100516.38;2079931;28;20173;-66
2023/04/25 01:37:10;;;;;;;16.93;15.23;;;;;;;14.95;100.00;100530.50;2072517;28;20500;-66
2023/04/25 01:38:12;;;;;;;17.73;15.10;;;;;;;13.98;100.00;100382.09;2080575;28;20200;-66
2023/04/25 01:39:12;;;;;;;17.17;15.47;;;;;;;14.86;100.00;100527.69;2076559;28;20185;-66
2023/04/25 01:40:13;;;;;;;15.63;14.10;;;;;;;14.88;100.00;100532.81;2078155;28;20447;-66
2023/04/25 01:41:14;;;;;;;17.03;14.70;;;;;;;14.90;100.00;100527.56;2080324;28;20193;-66
2023/04/25 01:42:15;;;;;;;16.60;14.40;;;;;;;14.91;100.00;100526.31;2081163;28;20208;-66
2023/04/25 01:43:15;;;;;;;16.50;14.10;;;;;;;14.93;100.00;100524.63;2080960;28;20987;-66
2023/04/25 01:44:16;;;;;;;14.37;12.83;;;;;;;14.92;100.00;100525.84;2077494;28;20188;-66
2023/04/25 01:45:17;;;;;;;17.90;14.97;;;;;;;14.82;100.00;100509.56;2080926;28;20176;-66
2023/04/25 01:46:18;;;;;;;16.80;15.20;;;;;;;14.91;100.00;100521.50;2081197;28;20566;-66
2023/04/25 01:47:18;;;;;;;16.03;14.40;;;;;;;14.91;100.00;100521.50;2080336;28;20239;-66
2023/04/25 01:48:19;;;;;;;15.23;13.60;;;;;;;14.96;100.00;100520.88;2080705;28;20193;-66
2023/04/25 01:49:19;;;;;;;15.33;13.80;;;;;;;14.16;100.00;100393.28;2080749;28;20287;-66
2023/04/25 01:50:20;;;;;;;15.63;13.90;;;;;;;14.97;100.00;100524.47;2080957;28;20275;-66
2023/04/25 01:51:20;;;;;;;15.80;14.20;;;;;;;14.02;100.00;100363.22;2080593;28;20177;-66
2023/04/25 01:52:21;;;;;;;15.17;13.77;;;;;;;15.04;100.00;100524.13;2080646;28;20559;-66
2023/04/25 01:53:22;;;;;;;15.17;13.63;;;;;;;15.03;100.00;100517.81;2080776;28;20635;-66
2023/04/25 01:54:22;;;;;;;16.60;13.57;;;;;;;15.04;100.00;100518.56;2076586;28;20185;-66
2023/04/25 01:55:23;;;;;;;14.87;13.27;;;;;;;14.62;100.00;100451.44;2080174;28;20450;-66
2023/04/25 01:56:23;;;;;;;14.53;13.07;;;;;;;15.02;100.00;100521.06;2080275;28;20192;-66
2023/04/25 01:57:24;;;;;;;15.23;13.67;;;;;;;14.99;100.00;100519.19;2080270;28;20250;-66
2023/04/25 01:58:24;;;;;;;15.33;13.77;;;;;;;14.62;100.00;100448.66;2080751;28;20250;-66
2023/04/25 01:59:25;;;;;;;15.93;14.33;;;;;;;15.02;100.00;100524.59;2078070;28;20470;-66
2023/04/25 02:00:25;;;;;;;16.50;14.80;;;;;;;14.99;100.00;100519.97;2080232;28;20716;-66
2023/04/25 02:01:26;;;;;;;16.77;14.60;;;;;;;14.99;100.00;100517.16;2080580;28;20177;-66
2023/04/25 02:02:27;;;;;;;15.67;14.17;;;;;;;15.02;100.00;100518.25;2080914;28;20200;-66
2023/04/25 02:03:27;;;;;;;16.60;14.87;;;;;;;15.05;100.00;100514.53;2080469;28;20212;-66
2023/04/25 02:04:27;;;;;;;16.20;14.13;;;;;;;15.04;100.00;100518.56;2074567;28;20202;-66
2023/04/25 02:05:28;;;;;;;17.20;14.00;;;;;;;14.94;100.00;100492.69;2077719;28;20261;-66
2023/04/25 02:06:30;;;;;;;16.57;14.60;;;;;;;15.04;100.00;100507.41;2080160;28;20658;-66
2023/04/25 02:07:31;;;;;;;17.80;15.13;;;;;;;14.31;100.00;100399.81;2076347;28;20459;-66
2023/04/25 02:08:32;;;;;;;18.07;14.93;;;;;;;15.03;100.00;100517.00;2074121;28;20420;-66
2023/04/25 02:09:32;;;;;;;16.03;14.43;;;;;;;15.04;100.00;100513.75;2079759;28;20435;-66
2023/04/25 02:10:34;;;;;;;19.77;14.53;;;;;;;14.92;100.00;100497.16;2081403;28;20655;-66
2023/04/25 02:11:34;;;;;;;16.73;15.07;;;;;;;15.01;100.00;100505.56;2080709;28;20288;-65
2023/04/25 02:12:36;;;;;;;16.93;15.13;;;;;;;14.94;100.00;100536.53;2079900;28;20431;-66
2023/04/25 02:13:36;;;;;;;17.37;15.33;;;;;;;14.80;100.00;100493.28;2080394;28;20185;-66
2023/04/25 02:14:36;;;;;;;17.47;15.53;;;;;;;14.92;100.00;100506.34;2079670;28;20471;-66
2023/04/25 02:15:37;;;;;;;16.07;14.30;;;;;;;14.94;100.00;100508.63;2082500;28;20199;-66
2023/04/25 02:16:38;;;;;;;16.13;14.53;;;;;;;14.95;100.00;100507.38;2086201;28;20702;-66
2023/04/25 02:17:39;;;;;;;16.20;14.30;;;;;;;14.94;100.00;100495.47;2080444;28;20183;-66
2023/04/25 02:18:39;;;;;;;17.53;15.27;;;;;;;14.93;100.00;100507.09;2080262;28;20427;-66
2023/04/25 02:19:39;;;;;;;16.17;14.60;;;;;;;14.79;100.00;100491.75;2075425;28;20186;-66
2023/04/25 02:20:40;;;;;;;16.83;14.80;;;;;;;14.87;100.00;100501.38;2080059;28;20292;-66
2023/04/25 02:21:40;;;;;;;17.23;15.00;;;;;;;14.81;100.00;100492.03;2080801;28;20192;-66
2023/04/25 02:22:41;;;;;;;18.33;14.97;;;;;;;14.46;100.00;100440.59;2080488;28;20497;-66
2023/04/25 02:23:42;;;;;;;18.10;14.70;;;;;;;14.87;100.00;100497.78;2080111;28;20574;-66
2023/04/25 02:24:42;;;;;;;16.73;15.03;;;;;;;14.86;100.00;100504.63;2077330;28;20546;-66
2023/04/25 02:25:43;;;;;;;16.07;14.37;;;;;;;14.79;100.00;100502.91;2080385;28;20687;-66
2023/04/25 02:26:44;;;;;;;17.27;14.67;;;;;;;14.53;100.00;100465.38;2080146;28;20184;-66
2023/04/25 02:27:44;;;;;;;16.37;14.67;;;;;;;14.62;100.00;100487.69;2080618;28;20183;-66
2023/04/25 02:28:44;;;;;;;16.17;14.47;;;;;;;14.67;100.00;100495.47;2080617;28;20955;-66
2023/04/25 02:29:45;;;;;;;15.87;13.87;;;;;;;14.71;100.00;100498.84;2074498;28;20206;-66
2023/04/25 02:30:45;;;;;;;16.67;14.97;;;;;;;14.61;100.00;100491.69;2071919;28;20203;-66
2023/04/25 02:31:46;;;;;;;19.70;14.90;;;;;;;14.57;100.00;100493.09;2071867;28;20248;-66
2023/04/25 02:32:46;;;;;;;17.23;14.93;;;;;;;14.58;100.00;100498.22;2075264;28;20272;-66
2023/04/25 02:33:47;;;;;;;18.27;14.60;;;;;;;14.59;100.00;100498.97;2079798;28;20177;-66
2023/04/25 02:34:47;;;;;;;18.97;14.20;;;;;;;14.60;100.00;100492.94;2074810;28;20621;-66
2023/04/25 02:35:48;;;;;;;16.60;14.80;;;;;;;14.60;100.00;100486.63;2080935;28;20181;-66
2023/04/25 02:36:52;;;;;;;15.83;14.23;;;;;;;14.59;100.00;100490.63;2080128;28;20197;-66
2023/04/25 02:37:52;;;;;;;17.10;15.30;;;;;;;14.18;100.00;100427.78;2080040;28;20727;-66
2023/04/25 02:38:53;;;;;;;18.90;15.27;;;;;;;14.59;100.00;100490.63;2080705;28;20801;-66
2023/04/25 02:39:53;;;;;;;15.70;14.10;;;;;;;14.56;100.00;100485.97;2078370;28;20205;-66
2023/04/25 02:40:53;;;;;;;16.33;14.50;;;;;;;14.53;100.00;100490.47;2080387;28;20319;-66
2023/04/25 02:41:54;;;;;;;15.70;14.10;;;;;;;14.46;100.00;100482.41;2079985;28;20212;-66
2023/04/25 02:42:54;;;;;;;16.67;13.70;;;;;;;14.49;100.00;100487.03;2079288;28;20188;-66
2023/04/25 02:43:55;;;;;;;15.43;13.77;;;;;;;14.48;100.00;100488.28;2080275;28;20214;-66
2023/04/25 02:44:55;;;;;;;18.80;14.13;;;;;;;14.47;100.00;100489.53;2072825;28;20251;-66
2023/04/25 02:45:56;;;;;;;15.60;13.70;;;;;;;14.46;100.00;100484.41;2079144;28;20193;-66
2023/04/25 02:46:56;;;;;;;17.20;14.40;;;;;;;14.40;100.00;100487.03;2079760;28;20216;-66
2023/04/25 02:47:56;;;;;;;19.73;14.03;;;;;;;14.26;100.00;100476.47;2080233;28;20201;-66
2023/04/25 02:48:57;;;;;;;21.00;13.87;;;;;;;14.35;100.00;100498.78;2080412;28;20233;-67
2023/04/25 02:49:57;;;;;;;20.03;13.23;;;;;;;14.31;100.00;100487.03;2076097;28;20189;-66
2023/04/25 02:50:58;;;;;;;16.43;13.90;;;;;;;14.41;100.00;100499.75;2079822;28;20264;-66
2023/04/25 02:51:58;;;;;;;20.30;13.87;;;;;;;14.39;100.00;100501.44;2079601;28;20258;-66
2023/04/25 02:52:59;;;;;;;16.60;15.00;;;;;;;14.38;100.00;100497.09;2073034;28;20182;-66
2023/04/25 02:53:59;;;;;;;16.17;14.57;;;;;;;14.39;100.00;100496.63;2079891;28;20266;-66
2023/04/25 02:55:00;;;;;;;17.37;15.67;;;;;;;14.33;100.00;100484.53;2079033;28;20250;-66
2023/04/25 02:56:00;;;;;;;18.43;15.50;;;;;;;14.27;100.00;100488.38;2080241;28;20205;-66
2023/04/25 02:57:02;;;;;;;18.33;15.77;;;;;;;14.26;100.00;100492.41;2078015;28;20192;-66
2023/04/25 02:58:03;;;;;;;17.20;15.30;;;;;;;14.26;100.00;100495.19;2079266;28;20203;-66
2023/04/25 02:59:03;;;;;;;15.90;14.30;;;;;;;14.27;100.00;100493.97;2080459;28;20443;-66
2023/04/25 03:00:05;;;;;;;15.57;14.07;;;;;;;14.27;100.00;100493.97;2073806;28;20195;-66
2023/04/25 03:01:05;;;;;;;17.47;15.00;;;;;;;14.30;100.00;100498.63;2081116;28;20569;-66
2023/04/25 03:02:06;;;;;;;15.73;14.13;;;;;;;14.17;100.00;100470.06;2080487;28;20550;-66
2023/04/25 03:03:06;;;;;;;18.40;14.53;;;;;;;14.23;100.00;100477.38;2074383;28;20364;-66
2023/04/25 03:04:06;;;;;;;16.03;14.03;;;;;;;14.26;100.00;100484.06;2080376;28;20201;-66
2023/04/25 03:05:07;;;;;;;16.27;14.57;;;;;;;14.23;100.00;100488.53;2076628;28;20216;-66
2023/04/25 03:06:07;;;;;;;16.47;14.77;;;;;;;14.26;100.00;100487.63;2082013;28;20196;-66
2023/04/25 03:07:08;;;;;;;16.00;14.30;;;;;;;14.24;100.00;100487.28;2085957;28;20185;-66
2023/04/25 03:08:08;;;;;;;19.37;14.87;;;;;;;14.29;100.00;100500.63;2079852;28;20259;-66
2023/04/25 03:09:09;;;;;;;19.40;15.57;;;;;;;13.82;100.00;100416.56;2080971;28;20662;-66
2023/04/25 03:10:10;;;;;;;17.87;15.97;;;;;;;13.76;100.00;100415.63;2079894;28;20661;-66
2023/04/25 03:11:10;;;;;;;17.07;14.57;;;;;;;14.34;100.00;100488.13;2079476;28;20668;-66
2023/04/25 03:12:11;;;;;;;16.57;14.73;;;;;;;14.35;100.00;100490.41;2079279;28;20896;-66
2023/04/25 03:13:11;;;;;;;16.30;14.60;;;;;;;14.35;100.00;100489.66;2076987;28;20259;-66
2023/04/25 03:14:13;;;;;;;18.60;15.80;;;;;;;14.35;100.00;100498.78;2074236;28;20285;-66
2023/04/25 03:15:13;;;;;;;19.97;14.60;;;;;;;14.45;100.00;100494.78;2073468;28;20185;-66
2023/04/25 03:16:14;;;;;;;17.33;14.63;;;;;;;14.46;100.00;100495.56;2079352;28;20483;-66
2023/04/25 03:17:14;;;;;;;19.87;13.80;;;;;;;14.51;100.00;100490.13;2071927;28;20187;-66
2023/04/25 03:18:15;;;;;;;16.70;14.40;;;;;;;14.52;100.00;100488.13;2078876;28;20182;-66
2023/04/25 03:19:18;;;;;;;18.93;13.93;;;;;;;14.44;100.00;100478.53;2080156;28;20192;-66
2023/04/25 03:20:19;;;;;;;15.77;14.30;;;;;;;14.50;100.00;100490.63;2077453;28;20200;-66
2023/04/25 03:21:19;;;;;;;17.03;14.13;;;;;;;14.58;100.00;100492.66;2080222;28;21049;-66
2023/04/25 03:22:19;;;;;;;18.53;14.17;;;;;;;13.81;100.00;100375.22;2080370;28;20279;-66
2023/04/25 03:23:20;;;;;;;16.60;14.10;;;;;;;14.46;100.00;100487.19;2080168;28;20187;-66
2023/04/25 03:24:21;;;;;;;18.67;15.20;;;;;;;13.52;100.00;100358.91;2080111;28;20708;-66
2023/04/25 03:25:22;;;;;;;16.63;14.90;;;;;;;14.08;100.00;100464.47;2080769;28;20184;-66
2023/04/25 03:26:22;;;;;;;18.63;16.17;;;;;;;14.33;100.00;100481.75;2078974;28;20458;-66
2023/04/25 03:27:23;;;;;;;15.83;14.27;;;;;;;14.34;100.00;100488.13;2079561;28;20361;-66
2023/04/25 03:28:23;;;;;;;16.93;15.30;;;;;;;14.35;100.00;100495.22;2080048;28;20207;-66
2023/04/25 03:29:26;;;;;;;17.63;15.77;;;;;;;14.10;100.00;100445.28;2080045;28;20249;-66
2023/04/25 03:30:26;;;;;;;17.33;15.63;;;;;;;14.53;100.00;100493.25;2075459;28;20563;-66
2023/04/25 03:31:27;;;;;;;18.00;16.10;;;;;;;14.42;100.00;100495.72;2079200;28;20469;-66
2023/04/25 03:32:27;;;;;;;21.73;16.63;;;;;;;14.48;100.00;100499.44;2079325;28;20214;-66
2023/04/25 03:33:27;;;;;;;18.97;16.03;;;;;;;14.50;100.00;100496.97;2080313;28;20164;-66
2023/04/25 03:34:28;;;;;;;17.90;15.93;;;;;;;14.54;100.00;100488.44;2080430;28;20603;-66
2023/04/25 03:35:28;;;;;;;18.77;14.83;;;;;;;14.59;100.00;100496.97;2071599;28;20202;-66
2023/04/25 03:36:29;;;;;;;19.23;14.97;;;;;;;14.66;100.00;100490.34;2070267;28;20280;-66
2023/04/25 03:37:29;;;;;;;17.93;14.97;;;;;;;14.65;100.00;100505.53;2076164;28;20675;-66
2023/04/25 03:38:30;;;;;;;20.40;14.77;;;;;;;14.64;100.00;100496.38;2079831;28;20194;-66
2023/04/25 03:39:31;;;;;;;20.97;14.70;;;;;;;14.66;100.00;100493.88;2079798;28;20179;-66
2023/04/25 03:40:31;;;;;;;19.57;15.23;;;;;;;14.65;100.00;100502.72;2073434;28;20180;-66
2023/04/25 03:41:32;;;;;;;16.50;14.10;;;;;;;14.52;100.00;100499.28;2079753;28;20529;-66
2023/04/25 03:42:32;;;;;;;21.60;13.50;;;;;;;14.53;100.00;100496.03;2072635;28;20584;-66
2023/04/25 03:43:33;;;;;;;15.37;13.33;;;;;;;14.53;100.00;100500.84;2079300;28;20758;-66
2023/04/25 03:44:33;;;;;;;16.53;13.77;;;;;;;14.54;100.00;100491.22;2079789;28;20668;-66
2023/04/25 03:45:33;;;;;;;15.70;14.17;;;;;;;14.51;100.00;100498.50;2076592;28;20210;-66
2023/04/25 03:46:34;;;;;;;15.73;14.03;;;;;;;14.48;100.00;100491.06;2079665;28;20250;-66
2023/04/25 03:47:34;;;;;;;16.10;14.40;;;;;;;13.97;100.00;100416.75;2077873;28;20714;-66
2023/04/25 03:48:35;;;;;;;16.23;14.77;;;;;;;14.58;100.00;100492.66;2080050;28;20199;-66
2023/04/25 03:49:36;;;;;;;16.03;14.43;;;;;;;14.59;100.00;100496.19;2079352;28;20627;-66
2023/04/25 03:50:37;;;;;;;16.77;14.93;;;;;;;14.63;100.00;100503.19;2072549;28;20292;-66
2023/04/25 03:51:37;;;;;;;17.50;14.33;;;;;;;14.65;100.00;100497.16;2071820;28;20524;-66
2023/04/25 03:52:37;;;;;;;17.73;14.33;;;;;;;14.61;100.00;100497.28;2071244;28;20219;-66
2023/04/25 03:53:38;;;;;;;15.47;13.77;;;;;;;14.61;100.00;100497.28;2071531;28;20196;-66
2023/04/25 03:54:38;;;;;;;15.90;14.30;;;;;;;14.61;100.00;100494.50;2074880;28;20209;-66
2023/04/25 03:55:39;;;;;;;15.57;13.97;;;;;;;13.84;100.00;100372.28;2073913;28;20251;-66
2023/04/25 03:56:39;;;;;;;17.57;15.30;;;;;;;14.61;100.00;100500.06;2079612;28;20187;-66
2023/04/25 03:57:39;;;;;;;16.10;14.07;;;;;;;14.60;100.00;100492.94;2078142;28;20238;-66
2023/04/25 03:58:40;;;;;;;15.63;14.03;;;;;;;14.54;100.00;100488.44;2072390;28;20194;-66
2023/04/25 03:59:40;;;;;;;15.80;14.10;;;;;;;14.55;100.00;100490.78;2078586;28;20274;-66
2023/04/25 04:00:41;;;;;;;17.00;15.17;;;;;;;14.56;100.00;100495.09;2077821;28;20214;-66
2023/04/25 04:01:41;;;;;;;16.90;15.30;;;;;;;14.59;100.00;100493.41;2080169;28;20188;-66
2023/04/25 04:02:42;;;;;;;17.33;15.60;;;;;;;14.21;100.00;100434.50;2079952;28;20198;-66
2023/04/25 04:03:42;;;;;;;16.63;15.03;;;;;;;14.39;100.00;100463.19;2079833;28;20232;-63
2023/04/25 04:04:43;;;;;;;19.17;16.17;;;;;;;14.44;100.00;100473.72;2079434;28;20203;-68
2023/04/25 04:05:44;;;;;;;16.90;15.10;;;;;;;13.85;100.00;100379.44;2071706;28;20733;-62
2023/04/25 04:06:45;;;;;;;16.80;15.00;;;;;;;14.61;100.00;100497.28;2079457;28;20508;-64
2023/04/25 04:07:46;;;;;;;17.97;15.07;;;;;;;14.65;100.00;100495.13;2074625;28;20448;-63
2023/04/25 04:08:47;;;;;;;17.50;15.70;;;;;;;14.60;100.00;100495.72;2071408;28;20204;-62
2023/04/25 04:09:47;;;;;;;18.13;15.67;;;;;;;14.56;100.00;100497.13;2076000;28;20565;-63
2023/04/25 04:10:47;;;;;;;16.50;14.90;;;;;;;14.52;100.00;100497.28;2074537;28;20454;-62
2023/04/25 04:11:48;;;;;;;16.30;14.60;;;;;;;14.62;100.00;100495.28;2074513;28;20190;-62
2023/04/25 04:12:48;;;;;;;16.53;14.83;;;;;;;14.66;100.00;100491.09;2079987;28;20193;-62
2023/04/25 04:13:49;;;;;;;18.50;15.17;;;;;;;14.70;100.00;100499.34;2079528;28;20225;-61
2023/04/25 04:14:49;;;;;;;20.70;14.77;;;;;;;14.73;100.00;100501.19;2079721;28;20527;-60
2023/04/25 04:15:50;;;;;;;19.80;15.80;;;;;;;14.71;100.00;100500.88;2078076;28;20264;-61
2023/04/25 04:16:51;;;;;;;17.27;15.13;;;;;;;14.20;100.00;100424.59;2077660;28;20203;-60
2023/04/25 04:17:52;;;;;;;16.13;14.50;;;;;;;14.74;100.00;100506.31;2074990;28;20512;-61
2023/04/25 04:18:52;;;;;;;18.97;15.53;;;;;;;14.81;100.00;100510.81;2078080;28;20494;-60
2023/04/25 04:19:52;;;;;;;16.60;14.80;;;;;;;14.85;100.00;100503.06;2078535;28;20199;-61
2023/04/25 04:20:53;;;;;;;15.57;14.03;;;;;;;14.87;100.00;100514.53;2070012;28;20195;-62
2023/04/25 04:21:53;;;;;;;16.23;14.57;;;;;;;14.90;100.00;100499.66;2072837;28;20242;-64
2023/04/25 04:22:54;;;;;;;15.60;14.03;;;;;;;14.93;100.00;100504.28;2072267;28;20594;-65
2023/04/25 04:23:54;;;;;;;15.47;13.90;;;;;;;14.96;100.00;100500.59;2072222;28;20706;-65
2023/04/25 04:24:56;;;;;;;15.13;13.73;;;;;;;14.98;100.00;100498.09;2071305;28;20194;-66
2023/04/25 04:25:57;;;;;;;15.47;14.07;;;;;;;15.00;100.00;100501.97;2072764;28;20195;-63
2023/04/25 04:26:57;;;;;;;16.27;14.63;;;;;;;15.02;100.00;100505.06;2072267;28;20455;-65
2023/04/25 04:27:58;;;;;;;16.60;15.00;;;;;;;15.01;100.00;100500.72;2069323;28;20188;-65
2023/04/25 04:28:59;;;;;;;16.47;14.90;;;;;;;15.00;100.00;100501.19;2077350;28;20188;-66
2023/04/25 04:30:00;;;;;;;16.43;14.73;;;;;;;14.09;100.00;100365.72;2074243;28;20462;-65
2023/04/25 04:31:00;;;;;;;15.77;14.20;;;;;;;14.73;100.00;100450.97;2071548;28;20222;-64
2023/04/25 04:32:01;;;;;;;16.47;14.87;;;;;;;14.96;100.00;100478.28;2071564;28;20445;-65
2023/04/25 04:33:01;;;;;;;16.43;14.53;;;;;;;15.10;100.00;100499.94;2073560;28;20207;-65